createdAt,value
2022-10-07T00:01:42.432Z,1.65
2022-10-07T00:06:44.246Z,1.48
2022-10-07T00:11:45.978Z,1.42
2022-10-07T00:16:47.741Z,1.60
2022-10-07T00:21:49.583Z,1.50
2022-10-07T00:26:51.330Z,1.42
2022-10-07T00:31:57.249Z,1.23
2022-10-07T00:36:59.814Z,1.80
2022-10-07T00:42:01.587Z,2.28
2022-10-07T00:47:14.564Z,1.33
2022-10-07T00:52:20.422Z,1.65
2022-10-07T00:57:25.570Z,1.40
2022-10-07T01:02:28.592Z,1.80
2022-10-07T01:07:31.944Z,1.83
2022-10-07T01:13:05.406Z,1.70
2022-10-07T01:18:42.013Z,1.80
2022-10-07T01:24:18.324Z,1.63
2022-10-07T01:29:37.045Z,2.50
2022-10-07T01:34:40.817Z,1.80
2022-10-07T01:39:49.867Z,2.50
2022-10-07T01:44:54.463Z,2.30
2022-10-07T01:49:56.201Z,2.15
2022-10-07T01:55:04.981Z,3.35
2022-10-07T02:00:12.354Z,2.17
2022-10-07T02:05:43.380Z,1.85
2022-10-07T02:11:06.361Z,2.22
2022-10-07T02:16:49.680Z,2.13
2022-10-07T02:21:54.679Z,2.08
2022-10-07T02:27:00.651Z,2.20
2022-10-07T02:32:07.427Z,2.47
2022-10-07T02:37:18.737Z,1.95
2022-10-07T02:42:53.198Z,2.53
2022-10-07T02:48:18.966Z,2.60
2022-10-07T02:53:24.038Z,2.80
2022-10-07T02:58:26.815Z,2.97
2022-10-07T03:03:31.362Z,3.17
2022-10-07T03:08:37.142Z,2.90
2022-10-07T03:13:41.030Z,2.92
2022-10-07T03:18:42.907Z,4.05
2022-10-07T03:23:52.847Z,3.38
2022-10-07T03:28:56.841Z,3.00
2022-10-07T03:34:00.661Z,4.07
2022-10-07T03:39:03.919Z,3.30
2022-10-07T03:44:07.175Z,3.78
2022-10-07T03:49:09.280Z,3.15
2022-10-07T03:54:11.493Z,3.08
2022-10-07T03:59:14.744Z,2.80
2022-10-07T04:04:16.764Z,3.20
2022-10-07T04:09:19.205Z,2.92
2022-10-07T04:14:21.194Z,2.78
2022-10-07T04:19:23.946Z,3.53
2022-10-07T04:24:25.959Z,3.15
2022-10-07T04:29:27.771Z,3.22
2022-10-07T04:34:30.163Z,4.22
2022-10-07T04:39:56.116Z,5.15
2022-10-07T04:44:53.766Z,5.35
2022-10-07T04:49:55.642Z,4.78
2022-10-07T04:54:57.866Z,4.88
2022-10-07T04:59:59.833Z,6.40
2022-10-07T05:05:01.971Z,8.23
2022-10-07T05:10:04.400Z,6.25
2022-10-07T05:15:06.586Z,6.28
2022-10-07T05:20:10.321Z,4.35
2022-10-07T05:25:13.256Z,3.97
2022-10-07T05:30:15.378Z,3.72
2022-10-07T05:35:17.931Z,4.38
2022-10-07T05:40:20.887Z,4.68
2022-10-07T05:45:23.025Z,3.90
2022-10-07T05:50:25.349Z,3.28
2022-10-07T05:55:27.904Z,3.20
2022-10-07T06:00:29.797Z,3.35
2022-10-07T06:05:32.269Z,2.92
2022-10-07T06:10:53.311Z,2.83
2022-10-07T06:16:04.394Z,2.78
2022-10-07T06:21:06.506Z,2.75
2022-10-07T06:26:11.474Z,3.08
2022-10-07T06:31:22.494Z,3.15
2022-10-07T06:36:25.034Z,2.97
2022-10-07T06:41:30.431Z,2.70
2022-10-07T06:46:50.924Z,4.00
2022-10-07T06:51:53.963Z,2.42
2022-10-07T06:56:55.931Z,2.88
2022-10-07T07:01:58.209Z,3.97
2022-10-07T07:07:00.796Z,4.00
2022-10-07T07:12:03.400Z,5.40
2022-10-07T07:17:09.994Z,5.50
2022-10-07T07:22:12.059Z,3.80
2022-10-07T07:27:15.712Z,3.47
2022-10-07T07:32:18.913Z,3.50
2022-10-07T07:37:22.876Z,3.60
2022-10-07T07:42:28.086Z,3.08
2022-10-07T07:47:30.288Z,4.10
2022-10-07T07:52:32.838Z,3.08
2022-10-07T07:57:36.647Z,3.40
2022-10-07T08:02:43.258Z,3.78
2022-10-07T08:07:49.909Z,4.13
2022-10-07T08:12:51.983Z,2.97
2022-10-07T08:17:54.267Z,2.45
2022-10-07T08:22:59.017Z,2.92
2022-10-07T08:28:03.416Z,2.83
2022-10-07T08:33:05.806Z,2.65
2022-10-07T08:38:09.630Z,2.33
2022-10-07T08:43:15.891Z,2.47
2022-10-07T08:48:25.878Z,2.35
2022-10-07T08:53:36.635Z,2.58
2022-10-07T08:58:43.266Z,2.70
2022-10-07T09:03:53.975Z,3.20
2022-10-07T09:09:02.506Z,2.67
2022-10-07T09:14:17.186Z,2.83
2022-10-07T09:19:50.733Z,2.65
2022-10-07T09:25:19.293Z,2.97
2022-10-07T09:35:29.731Z,2.08
2022-10-07T09:41:02.327Z,2.25
2022-10-07T09:46:04.455Z,2.10
2022-10-07T09:51:18.658Z,3.53
2022-10-07T09:56:42.873Z,2.38
2022-10-07T10:02:18.791Z,2.63
2022-10-07T10:07:33.764Z,2.30
2022-10-07T10:12:45.189Z,3.17
2022-10-07T10:17:47.861Z,2.90
2022-10-07T10:22:50.337Z,2.40
2022-10-07T10:28:04.758Z,2.30
2022-10-07T10:33:26.624Z,2.50
2022-10-07T10:38:47.161Z,2.25
2022-10-07T10:44:01.319Z,2.75
2022-10-07T10:49:25.426Z,2.78
2022-10-07T10:55:04.728Z,2.53
2022-10-07T11:00:15.895Z,2.38
2022-10-07T11:05:21.910Z,2.83
2022-10-07T11:10:49.548Z,3.03
2022-10-07T11:16:07.482Z,3.00
2022-10-07T11:21:22.140Z,2.90
2022-10-07T11:27:10.591Z,3.00
2022-10-07T11:32:21.964Z,3.10
2022-10-07T11:37:27.734Z,3.10
2022-10-07T11:42:33.785Z,3.13
2022-10-07T11:47:43.553Z,2.97
2022-10-07T11:52:48.629Z,3.08
2022-10-07T11:57:57.270Z,3.20
2022-10-07T12:03:19.582Z,3.40
2022-10-07T12:08:32.202Z,3.10
2022-10-07T12:13:38.637Z,3.42
2022-10-07T12:18:40.580Z,3.28
2022-10-07T12:23:43.696Z,3.10
2022-10-07T12:29:07.641Z,3.17
2022-10-07T12:34:11.394Z,2.90
2022-10-07T12:39:13.147Z,3.05
2022-10-07T12:44:36.147Z,3.33
2022-10-07T12:49:41.665Z,3.50
2022-10-07T12:55:07.341Z,2.80
2022-10-07T13:00:17.243Z,2.83
2022-10-07T13:05:59.769Z,2.80
2022-10-07T13:11:07.541Z,2.85
2022-10-07T13:16:17.283Z,2.60
2022-10-07T13:21:55.256Z,2.47
2022-10-07T13:26:57.603Z,2.70
2022-10-07T13:32:09.880Z,3.00
2022-10-07T13:37:34.284Z,3.15
2022-10-07T13:42:43.719Z,2.50
2022-10-07T13:47:49.073Z,2.65
2022-10-07T13:52:53.114Z,2.80
2022-10-07T13:57:57.355Z,2.63
2022-10-07T14:03:01.703Z,2.83
2022-10-07T14:08:17.002Z,3.05
2022-10-07T14:13:19.279Z,3.08
2022-10-07T14:18:21.499Z,2.75
2022-10-07T14:23:32.709Z,2.40
2022-10-07T14:28:37.549Z,2.30
2022-10-07T14:34:09.612Z,2.65
2022-10-07T14:39:36.455Z,2.72
2022-10-07T14:44:38.327Z,3.22
2022-10-07T14:49:43.720Z,2.88
2022-10-07T14:54:45.731Z,2.63
2022-10-07T14:59:50.013Z,3.38
2022-10-07T15:04:52.100Z,3.22
2022-10-07T15:09:53.993Z,3.13
2022-10-07T15:14:55.818Z,3.10
2022-10-07T15:19:57.757Z,3.38
2022-10-07T15:24:59.602Z,3.20
2022-10-07T15:30:01.587Z,3.35
2022-10-07T15:35:05.848Z,4.72
2022-10-07T15:40:08.436Z,4.85
2022-10-07T15:45:11.303Z,4.15
2022-10-07T15:50:13.217Z,3.72
2022-10-07T15:55:16.249Z,3.22
2022-10-07T16:00:18.225Z,3.63
2022-10-07T16:05:20.184Z,3.17
2022-10-07T16:10:22.003Z,3.65
2022-10-07T16:15:24.419Z,3.30
2022-10-07T16:20:26.261Z,3.33
2022-10-07T16:25:28.093Z,3.28
2022-10-07T16:30:50.237Z,3.10
2022-10-07T16:35:52.123Z,3.08
2022-10-07T16:40:54.374Z,3.80
2022-10-07T16:45:59.972Z,3.65
2022-10-07T16:51:01.766Z,3.60
2022-10-07T16:56:04.727Z,3.35
2022-10-07T17:01:11.827Z,4.30
2022-10-07T17:06:15.882Z,3.07
2022-10-07T17:11:29.482Z,3.50
2022-10-07T17:16:42.850Z,3.30
2022-10-07T17:21:46.247Z,3.25
2022-10-07T17:26:49.024Z,3.88
2022-10-07T17:31:51.279Z,3.40
2022-10-07T17:36:54.043Z,3.80
2022-10-07T17:41:55.798Z,3.53
2022-10-07T17:47:03.597Z,4.13
2022-10-07T17:52:05.587Z,4.10
2022-10-07T17:57:07.285Z,4.05
2022-10-07T18:02:10.462Z,3.70
2022-10-07T18:07:13.171Z,4.00
2022-10-07T18:12:33.392Z,3.72
2022-10-07T18:17:36.748Z,4.05
2022-10-07T18:22:38.492Z,4.22
2022-10-07T18:27:40.603Z,4.25
2022-10-07T18:32:42.397Z,3.85
2022-10-07T18:37:45.715Z,4.35
2022-10-07T18:42:47.622Z,4.63
2022-10-07T18:47:49.422Z,4.07
2022-10-07T18:52:52.378Z,3.58
2022-10-07T18:57:54.298Z,4.20
2022-10-07T19:02:56.034Z,6.75
2022-10-07T19:07:57.735Z,3.90
2022-10-07T19:13:20.662Z,4.05
2022-10-07T19:18:22.833Z,4.18
2022-10-07T19:23:26.238Z,4.88
2022-10-07T19:28:29.071Z,4.22
2022-10-07T19:33:30.858Z,4.68
2022-10-07T19:38:32.687Z,4.88
2022-10-07T19:43:35.280Z,4.95
2022-10-07T19:48:38.527Z,5.57
2022-10-07T19:53:46.575Z,6.30
2022-10-07T19:58:53.485Z,6.25
2022-10-07T20:04:00.845Z,5.13
2022-10-07T20:09:04.892Z,4.77
2022-10-07T20:14:07.597Z,4.90
2022-10-07T20:19:16.418Z,4.45
2022-10-07T20:24:18.295Z,4.60
2022-10-07T20:29:25.177Z,4.60
2022-10-07T20:34:27.428Z,5.00
2022-10-07T20:39:47.939Z,4.63
2022-10-07T20:44:51.776Z,5.03
2022-10-07T20:49:56.501Z,4.38
2022-10-07T20:54:58.522Z,4.75
2022-10-07T21:00:00.350Z,4.55
2022-10-07T21:05:02.078Z,4.38
2022-10-07T21:10:04.026Z,5.20
2022-10-07T21:15:06.839Z,5.18
2022-10-07T21:20:08.728Z,4.50
2022-10-07T21:25:11.901Z,4.68
2022-10-07T21:30:13.809Z,4.20
2022-10-07T21:35:15.598Z,4.72
2022-10-07T21:40:17.345Z,4.57
2022-10-07T21:45:19.090Z,4.65
2022-10-07T21:50:20.890Z,4.78
2022-10-07T21:55:22.603Z,4.63
2022-10-07T22:00:24.334Z,4.80
2022-10-07T22:05:26.125Z,4.78
2022-10-07T22:10:27.887Z,4.80
2022-10-07T22:15:29.710Z,5.72
2022-10-07T22:20:32.155Z,5.10
2022-10-07T22:25:33.952Z,5.60
2022-10-07T22:30:40.975Z,5.00
2022-10-07T22:35:42.842Z,6.30
2022-10-07T22:40:44.544Z,5.28
2022-10-07T22:45:58.200Z,5.95
2022-10-07T22:51:06.511Z,6.05
2022-10-07T22:56:11.563Z,6.00
2022-10-07T23:01:15.372Z,5.50
2022-10-07T23:06:19.230Z,5.45
2022-10-07T23:11:23.322Z,5.63
2022-10-07T23:16:29.683Z,6.28
2022-10-07T23:21:34.714Z,6.53
2022-10-07T23:26:37.008Z,6.78
2022-10-07T23:31:39.185Z,6.30
2022-10-07T23:36:41.251Z,6.85
2022-10-07T23:41:42.980Z,6.90
2022-10-07T23:46:44.901Z,7.55
2022-10-07T23:51:47.406Z,6.93
2022-10-07T23:56:49.307Z,8.57
